x

Portland 12 Nm Southeast Of Portland,me (44007) Wave Buoy

5:50am - Sat 6th Feb 2016 All times are EST. -5 hours from GMT.

  • Sig Wave height 2.0ft
  • Swell Direction
  • Peak Period 10s
  • Average Period 5s
  • Wind
    11mph, 13mph gusts
  • Sea Temp 41°f
  • 空気 Temp 28°f
  • Sea Pressure 1026mb
  • Portland 12 Nm Southeast Of Portland,me
  • Portland 12 Nm Southeast Of Portland,me

More Historic Weather Station data

Upgrade to MSW Pro to gain access to the past 30 days of data for over 8000 Wavebouys and Weather Stations around the globe.

Join Pro

Comparision Forecast

View Surf forecast
   
Sat 02/06 5:50am 2ft 10s 5s 11 13 mph 1026mb 41f 28f
4:50am 2ft 10s 5s 11 13 mph 1025.3mb 41f 27f
3:50am 2ft 10s 6s 11 13 mph 1024.6mb 41f 27f
2:50am 2ft 9s 5s 9 11 mph 1024.3mb 41f 26f
1:50am 2ft 8s 5s 13 16 mph 1023.6mb 41f 26f
12:50am 3ft 7s 5s 16 20 mph 1022.6mb 41f 27f
Fri 02/05 11:50pm 2.5ft 7s 5s 13 18 mph 1022.1mb 42f 27f
10:50pm 2.5ft 7s 5s 11 16 mph 1021.3mb 42f 27f
9:50pm 3ft 7s 5s 16 20 mph 1019.9mb 42f 28f
8:50pm 3.5ft 7s 5s 22 27 mph 1018.7mb 42f 29f
7:50pm 3.5ft 7s 5s 22 27 mph 1017.8mb 42f 29f
6:50pm 3.5ft 8s 5s 18 22 mph 1016.6mb 42f 29f
5:50pm 3.5ft 4s 4s 25 31 mph 1015.1mb 42f 29f
4:50pm 3.5ft 4s 4s 31 38 mph 1013.5mb 42f 29f
3:50pm 3.5ft 8s 4s 27 31 mph 1013.5mb 42f 30f
2:50pm 3.5ft 3s 4s 27 31 mph 1013.5mb 42f 31f
1:50pm 3.5ft 9s 4s 25 31 mph 1013.1mb 42f 31f
12:50pm 3.5ft 8s 4s 25 27 mph 1012.9mb 42f 31f
11:50am 4ft 9s 4s 27 31 mph 1015.4mb 42f 32f
10:50am 4ft 10s 5s 22 25 mph 1016.5mb 42f 32f
9:50am 4.5ft 9s 5s 22 29 mph 1018.2mb 42f 32f
8:50am 4.5ft 9s 5s 27 31 mph 1016.9mb 42f 33f
7:50am 4.5ft 8s 5s 22 27 mph 1018mb 42f 34f
6:50am 4.5ft 8s 5s 22 27 mph 1017.6mb 42f 34f
5:50am 4.5ft 9s 6s 20 25 mph 1017.7mb 42f 35f
4:50am 4.5ft 8s 6s 16 20 mph 1018.1mb 42f 38f
3:50am 4.5ft 8s 6s 16 20 mph 1018mb 42f 41f
2:50am 4.5ft 9s 7s 13 16 mph 1017.6mb 42f 41f
1:50am 4ft 8s 7s 11 16 mph 1017.7mb 42f 42f
12:50am 4ft 8s 7s 7
mph
1018.9mb 41f 42f
Thu 02/04 11:50pm 3.5ft 8s 7s 11 13 mph 1017mb 41f 42f
10:50pm 4.5ft 8s 7s 7 9 mph 1017.2mb 41f 43f
9:50pm 3.5ft 8s 6s 7
mph
1017.5mb 41f 42f
8:50pm 3.5ft 8s 7s 7
mph
1018mb 42f 43f
7:50pm 3.5ft 8s 6s 9 11 mph 1017.1mb 42f 44f
6:50pm 4ft 8s 6s 9 11 mph 1016.5mb 42f 45f
5:50pm 4.5ft 8s 6s 9 11 mph 1015.9mb 42f 46f
4:50pm 4.5ft 8s 6s 11
mph
1015mb 42f 46f
3:50pm 4.5ft 8s 6s 13 16 mph 1014.1mb 42f 48f
2:50pm 5ft 8s 6s 16 18 mph 1012.9mb 42f 49f
1:50pm 5ft 8s 6s 13 16 mph 1012.3mb 42f 47f
12:50pm 5.5ft 8s 6s 13
mph
1012mb 42f 46f
11:50am 6ft 8s 6s 4 7 mph 1012.6mb 42f 45f
10:50am 5.5ft 8s 6s 7 9 mph 1012.9mb 42f 46f
9:50am 6ft 8s 6s 11 13 mph 1012.4mb 42f 46f
8:50am 6.5ft 8s 6s 7 9 mph 1011.4mb 42f 44f
7:50am 6.5ft 8s 6s 9
mph
1010.7mb 42f 45f
6:50am 7ft 8s 6s 11 13 mph 1010mb 42f 46f
5:50am 6.5ft 8s 6s 16 18 mph 1009.8mb 42f 46f
4:50am 7ft 8s 6s 16 18 mph 1009.5mb 42f 47f
3:50am 6.5ft 8s 6s 18 20 mph 1009mb 42f 47f
2:50am 9ft 8s 7s 16 18 mph 1009.9mb 42f 45f
1:50am 9ft 9s 7s 7 9 mph 1010.5mb 42f 42f
12:50am 10ft 9s 6s 16 20 mph 1009.6mb 42f 47f
Wed 02/03 11:50pm 11.5ft 10s 7s 27 34 mph 1008.9mb 42f 50f
10:50pm 11.5ft 9s 7s 25 29 mph 1008.8mb 42f 51f
9:50pm 12ft 9s 7s 11 13 mph 1009mb 42f 47f
8:50pm 14ft 9s 7s 27 31 mph 1010.2mb 42f 50f
7:50pm 12.5ft 9s 7s 40 56 mph 1005.8mb 42f 49f
6:50pm 12ft 8s 7s 34 45 mph 1009.8mb 42f 48f
5:50pm 11ft 8s 7s 25 29 mph 1012.8mb 42f 46f
4:50pm 11ft 8s 7s 25 31 mph 1013.9mb 42f 46f
3:50pm 10ft 8s 6s 22 29 mph 1015.4mb 42f 44f
2:50pm 9ft 8s 6s 22 27 mph 1017.2mb 42f 44f
1:50pm 8ft 7s 6s 25 29 mph 1018.3mb 42f 43f
12:50pm 7.5ft 6s 5s 25 29 mph 1020mb 42f 43f
11:50am 6ft 6s 5s 27 31 mph 1022.2mb 42f 43f
10:50am 6ft 5s 5s 22 27 mph 1024.4mb 42f 42f
9:50am 5ft 5s 5s 22 27 mph 1025.5mb 42f 43f
8:50am 4.5ft 5s 4s 25 29 mph 1026.4mb 42f 43f
7:50am 3.5ft 5s 4s 20 25 mph 1026.7mb 42f 43f
6:50am 3.5ft 5s 4s 18 22 mph 1027.4mb 42f 42f
5:50am 3.5ft 5s 4s 13 18 mph 1028.1mb 42f 43f
4:50am 4ft 5s 5s 11 13 mph 1028.4mb 42f 43f
3:50am 4.5ft 5s 4s 18 22 mph 1027.8mb 42f 41f
2:50am 4.5ft 5s 4s 18 22 mph 1029.1mb 42f 40f
1:50am 4ft 4s 4s 20 25 mph 1029.1mb 42f 39f
12:50am 3.5ft 4s 4s 20 25 mph 1029.3mb 42f 38f
Tue 02/02 11:50pm 3ft 4s 4s 20 22 mph 1029.4mb 42f 38f
10:50pm 2.5ft 4s 4s 18 22 mph 1029.9mb 42f 38f
9:50pm 2.5ft 9s 4s 18 22 mph 1030.1mb 42f 37f
8:50pm 2.5ft 9s 4s 16 18 mph 1029.9mb 42f 38f
7:50pm 2ft 9s 5s 20 22 mph 1029.2mb 42f 40f
6:50pm 2ft 9s 7s 9 13 mph 1028.4mb 42f 42f
5:50pm 2ft 9s 6s 4 7 mph 1027.3mb 42f 42f
4:50pm 2ft 10s 7s 7 9 mph 1026.2mb 42f 42f
3:50pm 2.5ft 8s 7s 7 9 mph 1025.3mb 42f 42f
2:50pm 2.5ft 8s 7s 7 9 mph 1024.5mb 42f 43f
1:50pm 2.5ft 10s 7s 7 9 mph 1024.8mb 43f 43f
12:50pm 2.5ft 9s 7s 4 7 mph 1024.7mb 42f 42f